createdAt,value
2019-01-24T00:00:25.811Z,39.63
2019-01-24T00:01:08.489Z,40.70
2019-01-24T00:01:41.656Z,39.18
2019-01-24T00:02:14.734Z,40.23
2019-01-24T00:02:47.821Z,39.60
2019-01-24T00:03:22.239Z,39.65
2019-01-24T00:03:56.387Z,39.23
2019-01-24T00:04:29.463Z,39.60
2019-01-24T00:05:03.946Z,40.75
2019-01-24T00:05:37.047Z,39.88
2019-01-24T00:06:10.177Z,39.70
2019-01-24T00:06:43.118Z,39.23
2019-01-24T00:07:16.147Z,38.78
2019-01-24T00:07:49.386Z,40.12
2019-01-24T00:08:22.570Z,39.35
2019-01-24T00:08:55.641Z,38.70
2019-01-24T00:09:28.823Z,39.15
2019-01-24T00:10:02.109Z,38.28
2019-01-24T00:10:35.138Z,40.08
2019-01-24T00:11:08.175Z,39.25
2019-01-24T00:11:41.439Z,39.88
2019-01-24T00:12:14.501Z,39.50
2019-01-24T00:12:47.683Z,39.38
2019-01-24T00:13:21.159Z,39.25
2019-01-24T00:13:54.131Z,39.98
2019-01-24T00:14:27.382Z,39.33
2019-01-24T00:15:00.425Z,41.20
2019-01-24T00:15:33.555Z,39.83
2019-01-24T00:16:06.690Z,40.23
2019-01-24T00:16:39.856Z,39.38
2019-01-24T00:17:13.385Z,39.95
2019-01-24T00:17:46.545Z,40.90
2019-01-24T00:18:19.711Z,39.63
2019-01-24T00:18:52.808Z,39.50
2019-01-24T00:19:25.845Z,40.23
2019-01-24T00:19:59.023Z,39.55
2019-01-24T00:20:32.081Z,40.45
2019-01-24T00:21:06.231Z,40.03
2019-01-24T00:21:39.421Z,38.78
2019-01-24T00:22:12.396Z,39.63
2019-01-24T00:22:46.469Z,40.88
2019-01-24T00:23:19.550Z,40.00
2019-01-24T00:23:52.770Z,39.33
2019-01-24T00:24:25.905Z,40.43
2019-01-24T00:24:58.889Z,39.70
2019-01-24T00:25:32.045Z,39.90
2019-01-24T00:26:05.379Z,40.08
2019-01-24T00:26:41.387Z,39.33
2019-01-24T00:27:14.386Z,40.50
2019-01-24T00:27:47.546Z,40.03
2019-01-24T00:28:20.689Z,39.27
2019-01-24T00:28:53.636Z,40.05
2019-01-24T00:29:26.658Z,40.33
2019-01-24T00:29:59.690Z,40.08
2019-01-24T00:30:33.704Z,39.83
2019-01-24T00:31:06.736Z,40.00
2019-01-24T00:31:39.736Z,39.50
2019-01-24T00:32:12.668Z,39.83
2019-01-24T00:32:45.774Z,39.23
2019-01-24T00:33:18.802Z,40.38
2019-01-24T00:33:51.704Z,41.20
2019-01-24T00:34:24.780Z,39.67
2019-01-24T00:34:57.772Z,40.58
2019-01-24T00:35:30.722Z,40.03
2019-01-24T00:36:03.992Z,40.40
2019-01-24T00:36:37.042Z,39.35
2019-01-24T00:37:10.144Z,38.65
2019-01-24T00:37:43.281Z,39.90
2019-01-24T00:38:16.372Z,38.63
2019-01-24T00:38:49.426Z,39.20
2019-01-24T00:39:22.797Z,40.33
2019-01-24T00:39:55.894Z,39.48
2019-01-24T00:40:29.013Z,39.23
2019-01-24T00:41:02.141Z,40.10
2019-01-24T00:41:35.307Z,38.85
2019-01-24T00:42:08.331Z,39.48
2019-01-24T00:42:41.332Z,39.33
2019-01-24T00:43:15.668Z,38.83
2019-01-24T00:43:48.680Z,37.55
2019-01-24T00:44:21.794Z,38.25
2019-01-24T00:44:54.960Z,38.20
2019-01-24T00:45:28.094Z,39.33
2019-01-24T00:46:03.122Z,37.28
2019-01-24T00:46:36.270Z,39.18
2019-01-24T00:47:09.502Z,39.23
2019-01-24T00:47:42.656Z,39.33
2019-01-24T00:48:15.814Z,40.52
2019-01-24T00:48:48.834Z,40.78
2019-01-24T00:49:21.883Z,39.78
2019-01-24T00:49:54.939Z,39.90
2019-01-24T00:50:29.112Z,40.83
2019-01-24T00:51:02.146Z,40.67
2019-01-24T00:51:35.182Z,40.43
2019-01-24T00:52:08.280Z,40.52
2019-01-24T00:52:41.824Z,40.00
2019-01-24T00:53:14.752Z,38.98
2019-01-24T00:53:47.806Z,39.73
2019-01-24T00:54:20.859Z,39.83
2019-01-24T00:54:53.962Z,40.48
2019-01-24T00:55:27.016Z,38.75
2019-01-24T00:56:00.060Z,39.27
2019-01-24T00:56:33.119Z,40.17
2019-01-24T00:57:06.187Z,40.32
2019-01-24T00:57:39.350Z,40.20
2019-01-24T00:58:12.504Z,40.38
2019-01-24T00:58:45.537Z,39.20
2019-01-24T00:59:18.546Z,39.73
2019-01-24T00:59:51.602Z,40.58
2019-01-24T01:00:25.002Z,41.15
2019-01-24T01:00:58.116Z,40.43
2019-01-24T01:01:31.107Z,40.17
2019-01-24T01:02:04.326Z,40.17
2019-01-24T01:02:37.403Z,40.55
2019-01-24T01:03:10.540Z,40.85
2019-01-24T01:03:43.650Z,40.78
2019-01-24T01:04:16.648Z,39.88
2019-01-24T01:04:49.684Z,39.63
2019-01-24T01:05:24.304Z,39.75
2019-01-24T01:05:57.327Z,40.35
2019-01-24T01:06:30.480Z,41.37
2019-01-24T01:07:03.797Z,39.92
2019-01-24T01:07:36.852Z,40.40
2019-01-24T01:08:10.986Z,39.65
2019-01-24T01:08:44.153Z,40.70
2019-01-24T01:09:17.180Z,40.88
2019-01-24T01:09:50.130Z,40.33
2019-01-24T01:10:23.240Z,41.25
2019-01-24T01:10:57.524Z,40.20
2019-01-24T01:11:33.360Z,39.90
2019-01-24T01:12:06.780Z,41.10
2019-01-24T01:12:39.892Z,39.70
2019-01-24T01:13:13.000Z,41.65
2019-01-24T01:13:45.900Z,39.88
2019-01-24T01:14:18.922Z,41.18
2019-01-24T01:14:51.832Z,41.35
2019-01-24T01:15:24.858Z,41.08
2019-01-24T01:15:59.450Z,40.65
2019-01-24T01:16:32.624Z,41.18
2019-01-24T01:17:05.753Z,40.80
2019-01-24T01:17:38.760Z,40.90
2019-01-24T01:18:11.924Z,41.30
2019-01-24T01:18:45.066Z,40.23
2019-01-24T01:19:18.116Z,41.15
2019-01-24T01:19:51.140Z,40.38
2019-01-24T01:20:24.902Z,39.78
2019-01-24T01:20:57.930Z,40.48
2019-01-24T01:21:31.016Z,40.67
2019-01-24T01:22:04.352Z,39.83
2019-01-24T01:22:37.344Z,40.92
2019-01-24T01:23:10.370Z,40.35
2019-01-24T01:23:43.405Z,40.00
2019-01-24T01:24:16.414Z,40.52
2019-01-24T01:24:49.468Z,40.03
2019-01-24T01:25:22.520Z,40.43
2019-01-24T01:25:55.545Z,40.80
2019-01-24T01:26:28.688Z,39.83
2019-01-24T01:27:01.726Z,40.43
2019-01-24T01:27:34.950Z,40.90
2019-01-24T01:28:08.060Z,39.75
2019-01-24T01:28:41.095Z,39.92
2019-01-24T01:29:14.050Z,40.17
2019-01-24T01:29:47.127Z,39.85
2019-01-24T01:30:22.671Z,40.60
2019-01-24T01:30:55.722Z,40.45
2019-01-24T01:31:28.820Z,39.90
2019-01-24T01:32:01.881Z,39.92
2019-01-24T01:32:34.983Z,39.75
2019-01-24T01:33:07.976Z,40.23
2019-01-24T01:33:40.906Z,41.10
2019-01-24T01:34:13.931Z,39.85
2019-01-24T01:34:46.868Z,41.08
2019-01-24T01:35:20.226Z,40.05
2019-01-24T01:35:53.299Z,40.50
2019-01-24T01:36:26.248Z,39.63
2019-01-24T01:36:59.357Z,39.88
2019-01-24T01:37:32.300Z,40.78
2019-01-24T01:38:05.413Z,40.83
2019-01-24T01:38:38.347Z,40.33
2019-01-24T01:39:11.923Z,39.50
2019-01-24T01:39:44.956Z,40.17
2019-01-24T01:40:18.720Z,40.28
2019-01-24T01:40:51.775Z,40.20
2019-01-24T01:41:25.134Z,40.52
2019-01-24T01:41:58.169Z,40.17
2019-01-24T01:42:31.351Z,40.48
2019-01-24T01:43:04.696Z,39.35
2019-01-24T01:43:37.702Z,40.05
2019-01-24T01:44:10.744Z,40.83
2019-01-24T01:44:43.781Z,39.80
2019-01-24T01:45:19.802Z,40.63
2019-01-24T01:45:52.924Z,39.90
2019-01-24T01:46:25.975Z,40.23
2019-01-24T01:47:00.170Z,40.55
2019-01-24T01:47:33.227Z,40.63
2019-01-24T01:48:06.343Z,40.05
2019-01-24T01:48:39.285Z,40.78
2019-01-24T01:49:12.364Z,40.80
2019-01-24T01:49:45.511Z,41.28
2019-01-24T01:50:21.360Z,40.65
2019-01-24T01:50:55.392Z,39.80
2019-01-24T01:51:28.400Z,40.40
2019-01-24T01:52:01.431Z,41.33
2019-01-24T01:52:34.443Z,40.30
2019-01-24T01:53:07.593Z,40.50
2019-01-24T01:53:40.619Z,41.10
2019-01-24T01:54:13.453Z,41.00
2019-01-24T01:54:46.629Z,40.70
2019-01-24T01:55:19.746Z,40.85
2019-01-24T01:55:52.899Z,39.83
2019-01-24T01:56:25.909Z,40.80
2019-01-24T01:56:59.027Z,41.90
2019-01-24T01:57:32.140Z,39.92
2019-01-24T01:58:05.176Z,40.92
2019-01-24T01:58:38.152Z,40.48
2019-01-24T01:59:11.107Z,41.05
2019-01-24T01:59:44.179Z,40.30
2019-01-24T02:00:20.619Z,41.18
2019-01-24T02:00:53.757Z,40.28
2019-01-24T02:01:26.819Z,40.78
2019-01-24T02:01:59.849Z,40.50
2019-01-24T02:02:32.805Z,42.20
2019-01-24T02:03:06.965Z,40.40
2019-01-24T02:03:40.265Z,40.63
2019-01-24T02:04:13.339Z,42.13
2019-01-24T02:04:46.403Z,41.18
2019-01-24T02:05:19.573Z,40.08
2019-01-24T02:05:52.548Z,40.98
2019-01-24T02:06:25.619Z,40.65
2019-01-24T02:06:58.705Z,40.75
2019-01-24T02:07:31.812Z,41.18
2019-01-24T02:08:04.998Z,41.40
2019-01-24T02:08:38.239Z,40.80
2019-01-24T02:09:11.387Z,41.08
2019-01-24T02:09:44.739Z,40.60
2019-01-24T02:10:21.120Z,41.42
2019-01-24T02:10:54.139Z,41.13
2019-01-24T02:11:27.328Z,40.73
2019-01-24T02:12:01.237Z,41.10
2019-01-24T02:12:34.309Z,41.60
2019-01-24T02:13:07.367Z,41.33
2019-01-24T02:13:40.679Z,41.40
2019-01-24T02:14:13.728Z,40.40
2019-01-24T02:14:46.820Z,41.08
2019-01-24T02:15:20.305Z,39.53
2019-01-24T02:15:53.339Z,41.28
2019-01-24T02:16:27.985Z,40.17
2019-01-24T02:17:01.039Z,39.78
2019-01-24T02:17:34.135Z,40.23
2019-01-24T02:18:07.201Z,40.43
2019-01-24T02:18:40.271Z,42.00
2019-01-24T02:19:13.334Z,40.10
2019-01-24T02:19:46.539Z,41.10
2019-01-24T02:20:21.693Z,40.92
2019-01-24T02:20:54.758Z,41.63
2019-01-24T02:21:29.218Z,40.45
2019-01-24T02:22:02.427Z,40.75
2019-01-24T02:22:35.409Z,40.50
2019-01-24T02:23:08.571Z,40.75
2019-01-24T02:23:41.859Z,40.38
2019-01-24T02:24:15.004Z,40.63
2019-01-24T02:24:48.219Z,40.52
2019-01-24T02:25:21.546Z,40.58
2019-01-24T02:25:54.759Z,40.75
2019-01-24T02:26:27.968Z,41.13
2019-01-24T02:27:01.049Z,40.75
2019-01-24T02:27:34.117Z,39.83
2019-01-24T02:28:07.158Z,40.58
2019-01-24T02:28:40.367Z,40.75
2019-01-24T02:29:13.396Z,40.17
2019-01-24T02:29:46.448Z,40.58
2019-01-24T02:30:25.864Z,40.38
2019-01-24T02:30:58.829Z,40.50
2019-01-24T02:31:32.081Z,41.90
2019-01-24T02:32:05.302Z,40.64
2019-01-24T02:32:39.398Z,39.35
2019-01-24T02:33:12.525Z,39.90
2019-01-24T02:33:45.577Z,41.90
2019-01-24T02:34:18.689Z,40.67
2019-01-24T02:34:51.795Z,40.15
2019-01-24T02:35:25.010Z,39.18
2019-01-24T02:35:58.193Z,40.08
2019-01-24T02:36:31.255Z,41.65
2019-01-24T02:37:04.390Z,41.77
2019-01-24T02:37:39.144Z,41.45
2019-01-24T02:38:12.209Z,41.30
2019-01-24T02:38:45.383Z,42.05
2019-01-24T02:39:18.455Z,42.93
2019-01-24T02:39:51.483Z,42.35
2019-01-24T02:40:24.663Z,43.25
2019-01-24T02:40:58.918Z,43.02
2019-01-24T02:41:32.097Z,43.58
2019-01-24T02:42:05.255Z,42.85
2019-01-24T02:42:38.282Z,42.55
2019-01-24T02:43:11.241Z,42.58
2019-01-24T02:43:44.233Z,43.05
2019-01-24T02:44:17.333Z,42.98
2019-01-24T02:44:50.421Z,42.48
2019-01-24T02:45:23.913Z,43.25
2019-01-24T02:45:57.099Z,42.40
2019-01-24T02:46:30.360Z,44.40
2019-01-24T02:47:03.385Z,43.25
2019-01-24T02:47:36.482Z,43.38
2019-01-24T02:48:09.679Z,41.77
2019-01-24T02:48:42.559Z,43.85
2019-01-24T02:49:15.630Z,42.50
2019-01-24T02:49:48.702Z,43.68
2019-01-24T02:50:22.079Z,43.52
2019-01-24T02:50:55.148Z,42.58
2019-01-24T02:51:28.365Z,44.48
2019-01-24T02:52:01.399Z,44.00
2019-01-24T02:52:34.597Z,43.55
2019-01-24T02:53:07.675Z,43.58
2019-01-24T02:53:41.943Z,42.93
2019-01-24T02:54:15.028Z,43.70
2019-01-24T02:54:49.625Z,43.38
2019-01-24T02:55:22.717Z,43.63
2019-01-24T02:55:55.889Z,44.40
2019-01-24T02:56:28.953Z,44.48
2019-01-24T02:57:02.258Z,43.95
2019-01-24T02:57:35.312Z,44.05
2019-01-24T02:58:08.393Z,43.50
2019-01-24T02:58:41.338Z,43.23
2019-01-24T02:59:14.384Z,43.45
2019-01-24T02:59:47.452Z,43.45
2019-01-24T03:00:21.988Z,43.85
2019-01-24T03:00:56.649Z,43.63
2019-01-24T03:01:31.069Z,43.45
2019-01-24T03:02:04.347Z,43.58
2019-01-24T03:02:37.525Z,44.23
2019-01-24T03:03:10.621Z,43.90
2019-01-24T03:03:43.719Z,44.38
2019-01-24T03:04:16.796Z,44.08
2019-01-24T03:04:56.642Z,43.92
2019-01-24T03:05:25.011Z,43.85
2019-01-24T03:05:58.107Z,45.03
2019-01-24T03:06:32.031Z,44.35
2019-01-24T03:07:05.091Z,43.40
2019-01-24T03:07:38.052Z,44.18
2019-01-24T03:08:11.151Z,44.58
2019-01-24T03:08:44.099Z,44.63
2019-01-24T03:09:17.182Z,43.90
2019-01-24T03:09:50.255Z,42.73
2019-01-24T03:10:23.327Z,43.87
2019-01-24T03:10:56.416Z,43.90
2019-01-24T03:11:29.827Z,43.98
2019-01-24T03:12:02.979Z,44.55
2019-01-24T03:12:36.019Z,44.40
2019-01-24T03:13:09.208Z,42.45
2019-01-24T03:13:42.240Z,44.83
2019-01-24T03:14:16.605Z,44.00
2019-01-24T03:14:49.599Z,43.45
2019-01-24T03:15:22.746Z,42.98
2019-01-24T03:15:55.883Z,43.70
2019-01-24T03:16:28.929Z,43.73
2019-01-24T03:17:01.947Z,43.98
2019-01-24T03:17:34.993Z,44.33
2019-01-24T03:18:07.998Z,43.60
2019-01-24T03:18:40.955Z,43.75
2019-01-24T03:19:13.951Z,44.15
2019-01-24T03:19:46.983Z,44.45
2019-01-24T03:20:20.027Z,43.70
2019-01-24T03:20:52.995Z,43.10
2019-01-24T03:21:25.999Z,43.10
2019-01-24T03:21:59.090Z,43.65
2019-01-24T03:22:32.091Z,45.00
2019-01-24T03:23:06.739Z,43.58
2019-01-24T03:23:40.876Z,44.13
2019-01-24T03:24:13.895Z,43.23
2019-01-24T03:24:46.809Z,44.30
2019-01-24T03:25:19.966Z,43.48
2019-01-24T03:25:52.987Z,42.78
2019-01-24T03:26:26.296Z,43.50
2019-01-24T03:26:59.400Z,43.48
2019-01-24T03:27:32.499Z,44.00
2019-01-24T03:28:05.595Z,43.30
2019-01-24T03:28:38.675Z,43.60
2019-01-24T03:29:11.656Z,43.25
2019-01-24T03:29:44.671Z,43.48
2019-01-24T03:30:19.959Z,43.58
2019-01-24T03:30:53.198Z,44.23
2019-01-24T03:31:26.199Z,44.55
2019-01-24T03:31:59.247Z,43.25
2019-01-24T03:32:32.169Z,43.70
2019-01-24T03:33:05.278Z,43.98
2019-01-24T03:33:38.189Z,44.23
2019-01-24T03:34:11.342Z,42.95
2019-01-24T03:34:45.476Z,43.83
2019-01-24T03:35:22.810Z,43.10
2019-01-24T03:35:55.743Z,42.55
2019-01-24T03:36:28.962Z,43.85
2019-01-24T03:37:01.972Z,43.45
2019-01-24T03:37:35.182Z,43.42
2019-01-24T03:38:08.187Z,45.10
2019-01-24T03:38:41.134Z,44.00
2019-01-24T03:39:14.261Z,44.18
2019-01-24T03:39:47.338Z,43.92
2019-01-24T03:40:20.440Z,44.53
2019-01-24T03:40:53.522Z,43.84
2019-01-24T03:41:26.553Z,45.50
2019-01-24T03:41:59.653Z,42.73
2019-01-24T03:42:32.655Z,43.15
2019-01-24T03:43:05.802Z,43.68
2019-01-24T03:43:38.816Z,44.60
2019-01-24T03:44:11.956Z,42.90
2019-01-24T03:44:44.959Z,43.58
2019-01-24T03:45:18.084Z,42.48
2019-01-24T03:45:52.194Z,42.70
2019-01-24T03:46:25.332Z,42.93
2019-01-24T03:46:58.333Z,43.75
2019-01-24T03:47:31.366Z,43.40
2019-01-24T03:48:04.490Z,44.03
2019-01-24T03:48:37.426Z,43.98
2019-01-24T03:49:10.449Z,43.60
2019-01-24T03:49:43.420Z,43.55
2019-01-24T03:50:19.212Z,44.13
2019-01-24T03:50:52.256Z,44.13
2019-01-24T03:51:25.280Z,43.78
2019-01-24T03:51:58.531Z,43.24
2019-01-24T03:52:31.324Z,43.60
2019-01-24T03:53:05.430Z,44.55
2019-01-24T03:53:38.352Z,43.60
2019-01-24T03:54:11.547Z,42.93
2019-01-24T03:54:44.445Z,43.38
2019-01-24T03:55:19.601Z,43.38
2019-01-24T03:55:52.656Z,43.42
2019-01-24T03:56:25.690Z,44.20
2019-01-24T03:56:58.702Z,43.98
2019-01-24T03:57:31.864Z,43.15
2019-01-24T03:58:05.058Z,43.50
2019-01-24T03:58:37.990Z,43.45
2019-01-24T03:59:11.370Z,44.13
2019-01-24T03:59:44.425Z,42.98
2019-01-24T04:00:20.629Z,42.55
2019-01-24T04:00:53.577Z,43.33
2019-01-24T04:01:26.692Z,44.06
2019-01-24T04:01:59.768Z,43.75
2019-01-24T04:02:32.800Z,43.68
2019-01-24T04:03:06.851Z,43.65
2019-01-24T04:03:39.852Z,43.17
2019-01-24T04:04:12.942Z,43.50
2019-01-24T04:04:45.951Z,43.45
2019-01-24T04:05:19.188Z,43.00
2019-01-24T04:05:52.176Z,42.75
2019-01-24T04:06:25.205Z,42.40
2019-01-24T04:06:58.222Z,44.42
2019-01-24T04:07:31.288Z,44.40
2019-01-24T04:08:04.441Z,43.10
2019-01-24T04:08:37.661Z,43.87
2019-01-24T04:09:10.741Z,43.92
2019-01-24T04:09:43.882Z,43.10
2019-01-24T04:10:18.573Z,44.18
2019-01-24T04:10:51.512Z,43.63
2019-01-24T04:11:24.566Z,44.65
2019-01-24T04:11:57.686Z,43.50
2019-01-24T04:12:31.003Z,44.05
2019-01-24T04:13:04.326Z,44.33
2019-01-24T04:13:37.420Z,44.30
2019-01-24T04:14:10.489Z,44.10
2019-01-24T04:14:43.641Z,44.03
2019-01-24T04:15:20.260Z,44.70
2019-01-24T04:15:53.331Z,44.60
2019-01-24T04:16:26.435Z,45.83
2019-01-24T04:16:59.517Z,44.90
2019-01-24T04:17:32.562Z,44.50
2019-01-24T04:18:05.971Z,43.95
2019-01-24T04:18:40.658Z,44.93
2019-01-24T04:19:13.825Z,45.60
2019-01-24T04:19:48.409Z,44.48
2019-01-24T04:20:21.582Z,44.40
2019-01-24T04:20:54.658Z,45.25
2019-01-24T04:21:27.723Z,45.48
2019-01-24T04:22:00.762Z,45.08
2019-01-24T04:22:33.900Z,45.00
2019-01-24T04:23:07.122Z,45.15
2019-01-24T04:23:40.199Z,45.83
2019-01-24T04:24:14.750Z,46.15
2019-01-24T04:24:47.804Z,44.20
2019-01-24T04:25:21.078Z,44.90
2019-01-24T04:25:55.702Z,46.85
2019-01-24T04:26:28.772Z,45.50
2019-01-24T04:27:01.962Z,45.35
2019-01-24T04:27:35.111Z,45.50
2019-01-24T04:28:08.302Z,45.15
2019-01-24T04:28:41.404Z,44.90
2019-01-24T04:29:14.374Z,44.50
2019-01-24T04:29:47.340Z,44.18
2019-01-24T04:30:22.510Z,43.90
2019-01-24T04:30:56.542Z,44.75
2019-01-24T04:31:29.638Z,43.68
2019-01-24T04:32:02.826Z,44.75
2019-01-24T04:32:35.941Z,44.08
2019-01-24T04:33:08.880Z,43.95
2019-01-24T04:33:43.584Z,43.90
2019-01-24T04:34:16.682Z,44.10
2019-01-24T04:34:49.588Z,44.38
2019-01-24T04:35:22.776Z,44.38
2019-01-24T04:35:55.660Z,43.05
2019-01-24T04:36:28.753Z,44.10
2019-01-24T04:37:01.760Z,44.00
2019-01-24T04:37:34.830Z,44.33
2019-01-24T04:38:07.831Z,45.33
2019-01-24T04:38:40.776Z,44.25
2019-01-24T04:39:13.800Z,44.75
2019-01-24T04:39:47.030Z,44.38
2019-01-24T04:40:20.698Z,43.83
2019-01-24T04:40:53.831Z,43.80
2019-01-24T04:41:26.822Z,45.35
2019-01-24T04:41:59.892Z,44.65
2019-01-24T04:42:32.914Z,43.85
2019-01-24T04:43:06.059Z,44.35
2019-01-24T04:43:39.075Z,45.28
2019-01-24T04:44:12.195Z,44.15
2019-01-24T04:44:45.186Z,44.98
2019-01-24T04:45:18.340Z,44.60
2019-01-24T04:45:51.476Z,44.70
2019-01-24T04:46:24.482Z,44.48
2019-01-24T04:46:57.487Z,44.50
2019-01-24T04:47:30.535Z,45.60
2019-01-24T04:48:03.656Z,44.20
2019-01-24T04:48:36.543Z,45.88
2019-01-24T04:49:09.639Z,44.88
2019-01-24T04:49:42.620Z,45.23
2019-01-24T04:50:16.981Z,45.12
2019-01-24T04:50:50.027Z,45.12
2019-01-24T04:51:23.031Z,44.80
2019-01-24T04:51:56.080Z,44.55
2019-01-24T04:52:29.092Z,44.00
2019-01-24T04:53:02.430Z,44.63
2019-01-24T04:53:35.435Z,45.80
2019-01-24T04:54:08.478Z,45.80
2019-01-24T04:54:41.399Z,45.55
2019-01-24T04:55:19.529Z,43.17
2019-01-24T04:55:52.587Z,45.90
2019-01-24T04:56:27.255Z,44.60
2019-01-24T04:57:00.261Z,44.65
2019-01-24T04:57:33.541Z,44.63
2019-01-24T04:58:06.500Z,42.67
2019-01-24T04:58:39.541Z,45.83
2019-01-24T04:59:12.559Z,46.25
2019-01-24T04:59:45.530Z,45.00
2019-01-24T05:00:25.274Z,45.92
2019-01-24T05:00:58.325Z,44.83
2019-01-24T05:01:31.347Z,45.75
2019-01-24T05:02:04.544Z,44.58
2019-01-24T05:02:37.566Z,43.40
2019-01-24T05:03:10.512Z,45.43
2019-01-24T05:03:43.414Z,45.78
2019-01-24T05:04:16.343Z,44.70
2019-01-24T05:04:49.352Z,45.08
2019-01-24T05:05:27.670Z,45.60
2019-01-24T05:05:57.407Z,45.70
2019-01-24T05:06:30.460Z,45.50
2019-01-24T05:07:03.431Z,44.55
2019-01-24T05:07:36.586Z,46.70
2019-01-24T05:08:09.606Z,45.73
2019-01-24T05:08:42.638Z,45.00
2019-01-24T05:09:15.542Z,46.88
2019-01-24T05:09:48.494Z,47.00
2019-01-24T05:10:21.498Z,47.27
2019-01-24T05:10:54.537Z,46.02
2019-01-24T05:11:27.585Z,46.90
2019-01-24T05:12:00.571Z,46.45
2019-01-24T05:12:33.606Z,46.37
2019-01-24T05:13:06.929Z,45.50
2019-01-24T05:13:39.823Z,46.85
2019-01-24T05:14:12.879Z,46.15
2019-01-24T05:14:45.869Z,45.88
2019-01-24T05:15:19.005Z,45.95
2019-01-24T05:15:51.932Z,45.75
2019-01-24T05:16:24.998Z,46.53
2019-01-24T05:16:58.085Z,47.20
2019-01-24T05:17:31.157Z,45.98
2019-01-24T05:18:04.527Z,46.80
2019-01-24T05:18:37.780Z,46.48
2019-01-24T05:19:10.909Z,47.38
2019-01-24T05:19:44.041Z,46.55
2019-01-24T05:20:17.159Z,45.75
2019-01-24T05:20:50.219Z,46.55
2019-01-24T05:21:24.132Z,47.80
2019-01-24T05:21:57.144Z,46.90
2019-01-24T05:22:30.260Z,48.08
2019-01-24T05:23:03.463Z,46.83
2019-01-24T05:23:36.579Z,46.90
2019-01-24T05:24:09.709Z,48.35
2019-01-24T05:24:42.623Z,47.48
2019-01-24T05:25:16.694Z,47.98
2019-01-24T05:25:49.805Z,47.05
2019-01-24T05:26:22.746Z,47.05
2019-01-24T05:26:55.638Z,46.53
2019-01-24T05:27:28.649Z,47.53
2019-01-24T05:28:01.656Z,47.48
2019-01-24T05:28:34.824Z,46.08
2019-01-24T05:29:07.737Z,47.88
2019-01-24T05:29:40.749Z,47.15
2019-01-24T05:30:21.043Z,45.80
2019-01-24T05:30:53.985Z,46.60
2019-01-24T05:31:26.995Z,47.90
2019-01-24T05:32:00.065Z,47.83
2019-01-24T05:32:33.083Z,47.43
2019-01-24T05:33:06.133Z,47.15
2019-01-24T05:33:39.056Z,46.98
2019-01-24T05:34:12.113Z,46.33
2019-01-24T05:34:45.206Z,48.00
2019-01-24T05:35:18.637Z,46.75
2019-01-24T05:35:51.661Z,47.00
2019-01-24T05:36:24.711Z,47.17
2019-01-24T05:36:57.746Z,48.20
2019-01-24T05:37:31.363Z,47.70
2019-01-24T05:38:04.459Z,46.98
2019-01-24T05:38:37.475Z,47.23
2019-01-24T05:39:10.481Z,47.15
2019-01-24T05:39:45.065Z,47.30
2019-01-24T05:40:18.044Z,47.00
2019-01-24T05:40:51.711Z,46.70
2019-01-24T05:41:24.712Z,47.62
2019-01-24T05:41:59.285Z,47.55
2019-01-24T05:42:32.182Z,46.85
2019-01-24T05:43:05.253Z,47.17
2019-01-24T05:43:38.157Z,43.68
2019-01-24T05:44:11.101Z,46.02
2019-01-24T05:44:44.207Z,44.65
2019-01-24T05:45:17.321Z,46.73
2019-01-24T05:45:50.335Z,45.45
2019-01-24T05:46:23.527Z,47.60
2019-01-24T05:46:56.550Z,47.05
2019-01-24T05:47:29.519Z,47.05
2019-01-24T05:48:02.633Z,46.15
2019-01-24T05:48:35.745Z,47.98
2019-01-24T05:49:08.569Z,48.15
2019-01-24T05:49:41.507Z,48.65
2019-01-24T05:50:14.621Z,47.23
2019-01-24T05:50:48.766Z,46.08
2019-01-24T05:51:21.806Z,48.73
2019-01-24T05:51:54.932Z,47.08
2019-01-24T05:52:27.812Z,46.77
2019-01-24T05:53:02.020Z,48.65
2019-01-24T05:53:34.915Z,47.40
2019-01-24T05:54:08.048Z,46.20
2019-01-24T05:54:41.141Z,46.55
2019-01-24T05:55:14.707Z,48.38
2019-01-24T05:55:47.768Z,47.13
2019-01-24T05:56:20.675Z,47.33
2019-01-24T05:56:53.785Z,46.50
2019-01-24T05:57:26.663Z,46.20
2019-01-24T05:57:59.803Z,48.08
2019-01-24T05:58:32.787Z,47.10
2019-01-24T05:59:06.973Z,48.17
2019-01-24T05:59:39.985Z,47.95
2019-01-24T06:00:21.148Z,46.88
2019-01-24T06:00:54.141Z,46.68
2019-01-24T06:01:27.562Z,47.73
2019-01-24T06:02:00.553Z,47.17
2019-01-24T06:02:34.577Z,48.25
2019-01-24T06:03:07.586Z,48.45
2019-01-24T06:03:40.831Z,47.73
2019-01-24T06:04:14.422Z,46.63
2019-01-24T06:04:47.532Z,47.62
2019-01-24T06:05:20.705Z,47.25
2019-01-24T06:05:53.681Z,46.77
2019-01-24T06:06:26.726Z,47.96
2019-01-24T06:06:59.818Z,48.23
2019-01-24T06:07:34.631Z,46.45
2019-01-24T06:08:07.771Z,46.40
2019-01-24T06:08:40.706Z,47.30
2019-01-24T06:09:13.802Z,48.08
2019-01-24T06:09:46.866Z,46.95
2019-01-24T06:10:19.822Z,46.80
2019-01-24T06:10:52.731Z,48.28
2019-01-24T06:11:25.849Z,48.65
2019-01-24T06:11:58.908Z,48.13
2019-01-24T06:12:31.823Z,48.33
2019-01-24T06:13:04.847Z,48.45
2019-01-24T06:13:37.900Z,48.17
2019-01-24T06:14:10.808Z,48.20
2019-01-24T06:14:43.844Z,47.93
2019-01-24T06:15:17.497Z,46.65
2019-01-24T06:15:51.724Z,46.90
2019-01-24T06:16:24.757Z,47.48
2019-01-24T06:16:57.786Z,46.75
2019-01-24T06:17:32.924Z,47.65
2019-01-24T06:18:06.061Z,46.58
2019-01-24T06:18:40.085Z,47.58
2019-01-24T06:19:13.115Z,49.05
2019-01-24T06:19:46.150Z,48.95
2019-01-24T06:20:19.168Z,47.85
2019-01-24T06:20:52.077Z,48.50
2019-01-24T06:21:24.988Z,46.45
2019-01-24T06:21:58.110Z,47.93
2019-01-24T06:22:31.159Z,48.15
2019-01-24T06:23:04.196Z,48.33
2019-01-24T06:23:37.450Z,48.08
2019-01-24T06:24:10.580Z,48.02
2019-01-24T06:24:43.607Z,47.40
2019-01-24T06:25:16.618Z,47.38
2019-01-24T06:25:49.677Z,47.62
2019-01-24T06:26:22.570Z,47.10
2019-01-24T06:26:56.650Z,47.98
2019-01-24T06:27:29.683Z,48.35
2019-01-24T06:28:03.106Z,48.60
2019-01-24T06:28:36.033Z,48.25
2019-01-24T06:29:09.203Z,48.15
2019-01-24T06:29:42.190Z,48.75
2019-01-24T06:30:17.551Z,48.00
2019-01-24T06:30:50.554Z,47.48
2019-01-24T06:31:23.622Z,48.35
2019-01-24T06:31:56.758Z,48.52
2019-01-24T06:32:29.837Z,48.60
2019-01-24T06:33:02.943Z,47.73
2019-01-24T06:33:35.970Z,48.85
2019-01-24T06:34:08.968Z,47.90
2019-01-24T06:34:43.546Z,47.67
2019-01-24T06:35:16.562Z,49.03
2019-01-24T06:35:49.628Z,48.23
2019-01-24T06:36:22.517Z,47.55
2019-01-24T06:36:55.560Z,47.83
2019-01-24T06:37:28.484Z,46.73
2019-01-24T06:38:01.567Z,48.00
2019-01-24T06:38:34.576Z,47.55
2019-01-24T06:39:08.439Z,46.28
2019-01-24T06:39:41.444Z,47.13
2019-01-24T06:40:14.636Z,47.80
2019-01-24T06:40:47.650Z,47.73
2019-01-24T06:41:20.850Z,49.00
2019-01-24T06:41:53.979Z,46.85
2019-01-24T06:42:26.938Z,46.80
2019-01-24T06:43:00.068Z,47.30
2019-01-24T06:43:33.022Z,46.48
2019-01-24T06:44:06.114Z,48.28
2019-01-24T06:44:39.178Z,47.03
2019-01-24T06:45:18.439Z,47.62
2019-01-24T06:45:51.444Z,47.15
2019-01-24T06:46:24.470Z,47.95
2019-01-24T06:46:57.560Z,47.35
2019-01-24T06:47:30.467Z,46.88
2019-01-24T06:48:03.804Z,47.23
2019-01-24T06:48:36.912Z,46.75
2019-01-24T06:49:09.864Z,46.98
2019-01-24T06:49:42.903Z,48.42
2019-01-24T06:50:17.172Z,46.95
2019-01-24T06:50:50.224Z,47.85
2019-01-24T06:51:23.212Z,46.37
2019-01-24T06:51:56.234Z,48.40
2019-01-24T06:52:29.314Z,48.42
2019-01-24T06:53:02.402Z,48.83
2019-01-24T06:53:35.504Z,48.10
2019-01-24T06:54:08.718Z,47.23
2019-01-24T06:54:41.830Z,46.30
2019-01-24T06:55:20.178Z,47.80
2019-01-24T06:55:53.170Z,47.73
2019-01-24T06:56:26.280Z,48.05
2019-01-24T06:56:59.282Z,47.35
2019-01-24T06:57:32.327Z,47.58
2019-01-24T06:58:05.331Z,47.70
2019-01-24T06:58:38.407Z,46.95
2019-01-24T06:59:11.318Z,48.75
2019-01-24T06:59:44.326Z,47.15
2019-01-24T07:00:17.592Z,47.30
2019-01-24T07:00:50.533Z,48.60
2019-01-24T07:01:23.580Z,48.00
2019-01-24T07:01:56.726Z,47.33
2019-01-24T07:02:29.649Z,48.08
2019-01-24T07:03:02.793Z,48.02
2019-01-24T07:03:35.785Z,46.92
2019-01-24T07:04:08.842Z,46.75
2019-01-24T07:04:41.766Z,47.50
2019-01-24T07:05:15.266Z,47.80
2019-01-24T07:05:48.336Z,47.73
2019-01-24T07:06:21.262Z,47.93
2019-01-24T07:06:54.355Z,47.78
2019-01-24T07:07:27.555Z,47.98
2019-01-24T07:08:00.559Z,48.20
2019-01-24T07:08:35.267Z,48.40
2019-01-24T07:09:08.500Z,48.02